sensor_id;sensor_type;location;lat;lon;timestamp;P1;durP1;ratioP1;P2;durP2;ratioP2
3597;SDS011;1813;52.016;8.714;2024-02-21T00:01:18;43.57;;;17.30;;
3597;SDS011;1813;52.016;8.714;2024-02-21T00:03:54;41.43;;;17.83;;
3597;SDS011;1813;52.016;8.714;2024-02-21T00:06:27;45.97;;;19.47;;
3597;SDS011;1813;52.016;8.714;2024-02-21T00:09:00;35.30;;;16.53;;
3597;SDS011;1813;52.016;8.714;2024-02-21T00:11:34;35.33;;;17.47;;
3597;SDS011;1813;52.016;8.714;2024-02-21T00:14:07;42.57;;;18.93;;
3597;SDS011;1813;52.016;8.714;2024-02-21T00:16:40;40.97;;;19.30;;
3597;SDS011;1813;52.016;8.714;2024-02-21T00:19:16;32.97;;;15.90;;
3597;SDS011;1813;52.016;8.714;2024-02-21T00:21:49;38.30;;;18.80;;
3597;SDS011;1813;52.016;8.714;2024-02-21T00:24:22;44.57;;;19.87;;
3597;SDS011;1813;52.016;8.714;2024-02-21T00:26:56;44.07;;;19.53;;
3597;SDS011;1813;52.016;8.714;2024-02-21T00:29:29;39.70;;;20.40;;
3597;SDS011;1813;52.016;8.714;2024-02-21T00:32:03;47.63;;;20.83;;
3597;SDS011;1813;52.016;8.714;2024-02-21T00:34:39;47.33;;;19.70;;
3597;SDS011;1813;52.016;8.714;2024-02-21T00:37:13;39.60;;;19.93;;
3597;SDS011;1813;52.016;8.714;2024-02-21T00:39:46;38.47;;;19.17;;
3597;SDS011;1813;52.016;8.714;2024-02-21T00:42:20;42.17;;;18.13;;
3597;SDS011;1813;52.016;8.714;2024-02-21T00:44:53;38.27;;;18.53;;
3597;SDS011;1813;52.016;8.714;2024-02-21T00:47:26;44.03;;;20.07;;
3597;SDS011;1813;52.016;8.714;2024-02-21T00:50:02;46.43;;;19.50;;
3597;SDS011;1813;52.016;8.714;2024-02-21T00:52:37;43.37;;;18.93;;
3597;SDS011;1813;52.016;8.714;2024-02-21T00:55:10;42.37;;;18.07;;
3597;SDS011;1813;52.016;8.714;2024-02-21T00:57:43;36.17;;;18.00;;
3597;SDS011;1813;52.016;8.714;2024-02-21T01:00:17;38.60;;;17.77;;
3597;SDS011;1813;52.016;8.714;2024-02-21T01:02:52;40.40;;;17.60;;
3597;SDS011;1813;52.016;8.714;2024-02-21T01:05:28;38.27;;;18.53;;
3597;SDS011;1813;52.016;8.714;2024-02-21T01:08:02;46.60;;;18.67;;
3597;SDS011;1813;52.016;8.714;2024-02-21T01:10:35;39.60;;;17.90;;
3597;SDS011;1813;52.016;8.714;2024-02-21T01:13:09;41.80;;;17.63;;
3597;SDS011;1813;52.016;8.714;2024-02-21T01:15:42;38.87;;;17.53;;
3597;SDS011;1813;52.016;8.714;2024-02-21T01:18:15;37.30;;;17.80;;
3597;SDS011;1813;52.016;8.714;2024-02-21T01:20:51;41.90;;;18.33;;
3597;SDS011;1813;52.016;8.714;2024-02-21T01:23:24;36.83;;;18.20;;
3597;SDS011;1813;52.016;8.714;2024-02-21T01:25:58;33.20;;;16.90;;
3597;SDS011;1813;52.016;8.714;2024-02-21T01:28:31;40.70;;;16.80;;
3597;SDS011;1813;52.016;8.714;2024-02-21T01:31:04;35.30;;;17.17;;
3597;SDS011;1813;52.016;8.714;2024-02-21T01:33:38;39.90;;;18.33;;
3597;SDS011;1813;52.016;8.714;2024-02-21T01:36:13;38.20;;;18.27;;
3597;SDS011;1813;52.016;8.714;2024-02-21T01:38:47;43.47;;;18.17;;
3597;SDS011;1813;52.016;8.714;2024-02-21T01:41:20;38.23;;;18.53;;
3597;SDS011;1813;52.016;8.714;2024-02-21T01:43:53;40.23;;;18.37;;
3597;SDS011;1813;52.016;8.714;2024-02-21T01:46:27;40.40;;;17.73;;
3597;SDS011;1813;52.016;8.714;2024-02-21T01:49:00;37.53;;;18.57;;
3597;SDS011;1813;52.016;8.714;2024-02-21T01:51:37;43.53;;;19.10;;
3597;SDS011;1813;52.016;8.714;2024-02-21T01:54:12;43.13;;;18.70;;
3597;SDS011;1813;52.016;8.714;2024-02-21T01:56:47;39.87;;;18.53;;
3597;SDS011;1813;52.016;8.714;2024-02-21T01:59:21;38.73;;;18.33;;
3597;SDS011;1813;52.016;8.714;2024-02-21T02:01:55;43.43;;;18.23;;
3597;SDS011;1813;52.016;8.714;2024-02-21T02:04:29;37.97;;;16.90;;
3597;SDS011;1813;52.016;8.714;2024-02-21T02:07:05;36.93;;;17.57;;
3597;SDS011;1813;52.016;8.714;2024-02-21T02:09:40;38.63;;;17.67;;
3597;SDS011;1813;52.016;8.714;2024-02-21T02:12:13;43.20;;;18.13;;
3597;SDS011;1813;52.016;8.714;2024-02-21T02:14:46;48.27;;;19.40;;
3597;SDS011;1813;52.016;8.714;2024-02-21T02:17:30;39.07;;;17.47;;
3597;SDS011;1813;52.016;8.714;2024-02-21T02:20:04;37.67;;;18.07;;
3597;SDS011;1813;52.016;8.714;2024-02-21T02:22:41;37.67;;;17.00;;
3597;SDS011;1813;52.016;8.714;2024-02-21T02:25:18;38.53;;;18.00;;
3597;SDS011;1813;52.016;8.714;2024-02-21T02:27:53;36.23;;;17.60;;
3597;SDS011;1813;52.016;8.714;2024-02-21T02:30:26;38.30;;;17.87;;
3597;SDS011;1813;52.016;8.714;2024-02-21T02:33:00;43.97;;;18.70;;
3597;SDS011;1813;52.016;8.714;2024-02-21T02:35:33;37.53;;;19.53;;
3597;SDS011;1813;52.016;8.714;2024-02-21T02:38:07;40.20;;;18.13;;
3597;SDS011;1813;52.016;8.714;2024-02-21T02:40:44;39.10;;;18.00;;
3597;SDS011;1813;52.016;8.714;2024-02-21T02:43:17;46.70;;;19.50;;
3597;SDS011;1813;52.016;8.714;2024-02-21T02:45:51;46.63;;;17.63;;
3597;SDS011;1813;52.016;8.714;2024-02-21T02:48:24;39.23;;;18.77;;
3597;SDS011;1813;52.016;8.714;2024-02-21T02:50:57;38.97;;;18.47;;
3597;SDS011;1813;52.016;8.714;2024-02-21T02:53:30;45.93;;;19.50;;
3597;SDS011;1813;52.016;8.714;2024-02-21T02:56:06;43.67;;;19.63;;
3597;SDS011;1813;52.016;8.714;2024-02-21T02:58:40;45.63;;;19.73;;
3597;SDS011;1813;52.016;8.714;2024-02-21T03:01:13;42.60;;;19.20;;
3597;SDS011;1813;52.016;8.714;2024-02-21T03:03:46;41.60;;;19.03;;
3597;SDS011;1813;52.016;8.714;2024-02-21T03:06:20;37.37;;;19.30;;
3597;SDS011;1813;52.016;8.714;2024-02-21T03:08:53;43.60;;;19.20;;
3597;SDS011;1813;52.016;8.714;2024-02-21T03:11:29;47.77;;;19.40;;
3597;SDS011;1813;52.016;8.714;2024-02-21T03:14:02;39.23;;;17.87;;
3597;SDS011;1813;52.016;8.714;2024-02-21T03:16:35;34.53;;;17.70;;
3597;SDS011;1813;52.016;8.714;2024-02-21T03:19:09;36.83;;;16.67;;
3597;SDS011;1813;52.016;8.714;2024-02-21T03:21:42;42.83;;;17.80;;
3597;SDS011;1813;52.016;8.714;2024-02-21T03:24:15;45.37;;;18.97;;
3597;SDS011;1813;52.016;8.714;2024-02-21T03:26:51;34.90;;;17.93;;
3597;SDS011;1813;52.016;8.714;2024-02-21T03:29:25;33.67;;;17.60;;
3597;SDS011;1813;52.016;8.714;2024-02-21T03:31:58;36.43;;;18.00;;
3597;SDS011;1813;52.016;8.714;2024-02-21T03:34:31;32.93;;;16.73;;
3597;SDS011;1813;52.016;8.714;2024-02-21T03:37:05;38.93;;;17.33;;
3597;SDS011;1813;52.016;8.714;2024-02-21T03:39:38;38.43;;;17.10;;
3597;SDS011;1813;52.016;8.714;2024-02-21T03:42:14;39.87;;;16.07;;
3597;SDS011;1813;52.016;8.714;2024-02-21T03:44:47;36.47;;;16.90;;
3597;SDS011;1813;52.016;8.714;2024-02-21T03:47:20;37.80;;;17.23;;
3597;SDS011;1813;52.016;8.714;2024-02-21T03:49:54;42.37;;;18.03;;
3597;SDS011;1813;52.016;8.714;2024-02-21T03:52:28;33.37;;;16.67;;
3597;SDS011;1813;52.016;8.714;2024-02-21T03:55:02;33.37;;;15.80;;
3597;SDS011;1813;52.016;8.714;2024-02-21T03:57:38;35.23;;;16.30;;
3597;SDS011;1813;52.016;8.714;2024-02-21T04:00:11;32.90;;;15.90;;
3597;SDS011;1813;52.016;8.714;2024-02-21T04:02:45;33.87;;;15.97;;
3597;SDS011;1813;52.016;8.714;2024-02-21T04:05:18;30.40;;;15.30;;
3597;SDS011;1813;52.016;8.714;2024-02-21T04:07:52;32.20;;;15.53;;
3597;SDS011;1813;52.016;8.714;2024-02-21T04:10:26;29.47;;;15.53;;
3597;SDS011;1813;52.016;8.714;2024-02-21T04:13:02;35.23;;;15.97;;
3597;SDS011;1813;52.016;8.714;2024-02-21T04:15:35;34.53;;;15.37;;
3597;SDS011;1813;52.016;8.714;2024-02-21T04:18:09;32.53;;;15.50;;
3597;SDS011;1813;52.016;8.714;2024-02-21T04:20:42;32.53;;;16.03;;
3597;SDS011;1813;52.016;8.714;2024-02-21T04:23:16;35.07;;;16.50;;
3597;SDS011;1813;52.016;8.714;2024-02-21T04:25:49;36.07;;;15.70;;
3597;SDS011;1813;52.016;8.714;2024-02-21T04:28:25;31.43;;;15.70;;
3597;SDS011;1813;52.016;8.714;2024-02-21T04:30:58;31.77;;;15.77;;
3597;SDS011;1813;52.016;8.714;2024-02-21T04:33:31;34.70;;;15.70;;
3597;SDS011;1813;52.016;8.714;2024-02-21T04:36:05;33.73;;;15.20;;
3597;SDS011;1813;52.016;8.714;2024-02-21T04:38:39;31.00;;;15.37;;
3597;SDS011;1813;52.016;8.714;2024-02-21T04:41:12;32.17;;;15.50;;
3597;SDS011;1813;52.016;8.714;2024-02-21T04:43:48;31.87;;;15.63;;
3597;SDS011;1813;52.016;8.714;2024-02-21T04:46:21;28.97;;;15.03;;
3597;SDS011;1813;52.016;8.714;2024-02-21T04:48:55;41.03;;;16.07;;
3597;SDS011;1813;52.016;8.714;2024-02-21T04:51:28;34.50;;;15.53;;
3597;SDS011;1813;52.016;8.714;2024-02-21T04:54:02;35.70;;;16.07;;
3597;SDS011;1813;52.016;8.714;2024-02-21T04:56:35;30.70;;;16.17;;
3597;SDS011;1813;52.016;8.714;2024-02-21T04:59:11;34.97;;;16.77;;
3597;SDS011;1813;52.016;8.714;2024-02-21T05:01:45;41.07;;;17.10;;
3597;SDS011;1813;52.016;8.714;2024-02-21T05:04:18;37.47;;;16.20;;
3597;SDS011;1813;52.016;8.714;2024-02-21T05:06:51;32.33;;;17.50;;
3597;SDS011;1813;52.016;8.714;2024-02-21T05:09:24;36.17;;;16.77;;
3597;SDS011;1813;52.016;8.714;2024-02-21T05:11:58;38.13;;;16.90;;
3597;SDS011;1813;52.016;8.714;2024-02-21T05:14:34;42.93;;;17.60;;
3597;SDS011;1813;52.016;8.714;2024-02-21T05:17:07;39.60;;;17.43;;
3597;SDS011;1813;52.016;8.714;2024-02-21T05:19:41;34.57;;;16.07;;
3597;SDS011;1813;52.016;8.714;2024-02-21T05:22:14;32.87;;;16.40;;
3597;SDS011;1813;52.016;8.714;2024-02-21T05:24:47;36.33;;;17.60;;
3597;SDS011;1813;52.016;8.714;2024-02-21T05:27:20;38.40;;;18.13;;
3597;SDS011;1813;52.016;8.714;2024-02-21T05:29:56;35.70;;;18.67;;
3597;SDS011;1813;52.016;8.714;2024-02-21T05:32:29;38.40;;;17.73;;
3597;SDS011;1813;52.016;8.714;2024-02-21T05:35:03;28.33;;;16.60;;
3597;SDS011;1813;52.016;8.714;2024-02-21T05:37:36;30.50;;;17.07;;
3597;SDS011;1813;52.016;8.714;2024-02-21T05:40:10;32.43;;;17.93;;
3597;SDS011;1813;52.016;8.714;2024-02-21T05:42:45;37.63;;;18.00;;
3597;SDS011;1813;52.016;8.714;2024-02-21T05:45:21;34.70;;;17.80;;
3597;SDS011;1813;52.016;8.714;2024-02-21T05:47:54;35.70;;;16.30;;
3597;SDS011;1813;52.016;8.714;2024-02-21T05:50:27;30.23;;;17.87;;
3597;SDS011;1813;52.016;8.714;2024-02-21T05:53:02;32.70;;;17.50;;
3597;SDS011;1813;52.016;8.714;2024-02-21T05:55:35;38.33;;;17.50;;
3597;SDS011;1813;52.016;8.714;2024-02-21T05:58:09;40.13;;;17.57;;
3597;SDS011;1813;52.016;8.714;2024-02-21T06:00:46;36.33;;;17.57;;
3597;SDS011;1813;52.016;8.714;2024-02-21T06:03:19;33.63;;;17.10;;
3597;SDS011;1813;52.016;8.714;2024-02-21T06:05:53;40.43;;;18.20;;
3597;SDS011;1813;52.016;8.714;2024-02-21T06:08:26;34.83;;;18.10;;
3597;SDS011;1813;52.016;8.714;2024-02-21T06:10:59;33.97;;;18.80;;
3597;SDS011;1813;52.016;8.714;2024-02-21T06:13:32;33.63;;;18.10;;
3597;SDS011;1813;52.016;8.714;2024-02-21T06:16:09;35.60;;;17.40;;
3597;SDS011;1813;52.016;8.714;2024-02-21T06:18:42;30.03;;;17.20;;
3597;SDS011;1813;52.016;8.714;2024-02-21T06:21:15;36.83;;;18.30;;
3597;SDS011;1813;52.016;8.714;2024-02-21T06:23:49;41.60;;;18.30;;
3597;SDS011;1813;52.016;8.714;2024-02-21T06:26:22;39.10;;;18.47;;
3597;SDS011;1813;52.016;8.714;2024-02-21T06:28:56;32.53;;;17.83;;
3597;SDS011;1813;52.016;8.714;2024-02-21T06:31:32;44.70;;;18.77;;
3597;SDS011;1813;52.016;8.714;2024-02-21T06:34:05;35.73;;;18.30;;
3597;SDS011;1813;52.016;8.714;2024-02-21T06:36:39;32.63;;;16.70;;
3597;SDS011;1813;52.016;8.714;2024-02-21T06:39:12;36.83;;;17.77;;
3597;SDS011;1813;52.016;8.714;2024-02-21T06:41:45;37.87;;;17.23;;
3597;SDS011;1813;52.016;8.714;2024-02-21T06:44:20;38.60;;;18.00;;
3597;SDS011;1813;52.016;8.714;2024-02-21T06:46:57;33.10;;;16.10;;
3597;SDS011;1813;52.016;8.714;2024-02-21T06:49:30;31.00;;;16.87;;
3597;SDS011;1813;52.016;8.714;2024-02-21T06:52:04;36.27;;;15.67;;
3597;SDS011;1813;52.016;8.714;2024-02-21T06:54:37;30.87;;;15.70;;
3597;SDS011;1813;52.016;8.714;2024-02-21T06:57:11;31.53;;;15.00;;
3597;SDS011;1813;52.016;8.714;2024-02-21T06:59:45;24.40;;;14.20;;
3597;SDS011;1813;52.016;8.714;2024-02-21T07:02:21;28.97;;;13.30;;
3597;SDS011;1813;52.016;8.714;2024-02-21T07:04:54;28.47;;;13.63;;
3597;SDS011;1813;52.016;8.714;2024-02-21T07:07:28;27.63;;;13.27;;
3597;SDS011;1813;52.016;8.714;2024-02-21T07:10:01;24.50;;;13.30;;
3597;SDS011;1813;52.016;8.714;2024-02-21T07:12:34;25.00;;;12.23;;
3597;SDS011;1813;52.016;8.714;2024-02-21T07:15:08;23.10;;;12.50;;
3597;SDS011;1813;52.016;8.714;2024-02-21T07:17:44;27.53;;;13.13;;
3597;SDS011;1813;52.016;8.714;2024-02-21T07:20:18;24.83;;;11.53;;
3597;SDS011;1813;52.016;8.714;2024-02-21T07:22:51;24.70;;;11.93;;
3597;SDS011;1813;52.016;8.714;2024-02-21T07:25:24;23.53;;;11.77;;
3597;SDS011;1813;52.016;8.714;2024-02-21T07:27:58;24.97;;;11.37;;
3597;SDS011;1813;52.016;8.714;2024-02-21T07:30:31;23.57;;;11.00;;
3597;SDS011;1813;52.016;8.714;2024-02-21T07:33:07;20.77;;;11.57;;
3597;SDS011;1813;52.016;8.714;2024-02-21T07:35:41;27.43;;;11.63;;
3597;SDS011;1813;52.016;8.714;2024-02-21T07:38:15;23.13;;;11.33;;
3597;SDS011;1813;52.016;8.714;2024-02-21T07:40:48;22.97;;;11.40;;
3597;SDS011;1813;52.016;8.714;2024-02-21T07:43:21;25.33;;;11.50;;
3597;SDS011;1813;52.016;8.714;2024-02-21T07:45:56;26.03;;;10.30;;
3597;SDS011;1813;52.016;8.714;2024-02-21T07:48:32;23.77;;;12.30;;
3597;SDS011;1813;52.016;8.714;2024-02-21T07:51:07;28.20;;;11.43;;
3597;SDS011;1813;52.016;8.714;2024-02-21T07:53:40;18.23;;;10.77;;
3597;SDS011;1813;52.016;8.714;2024-02-21T07:56:16;23.50;;;11.37;;
3597;SDS011;1813;52.016;8.714;2024-02-21T07:58:49;21.10;;;10.50;;
3597;SDS011;1813;52.016;8.714;2024-02-21T08:01:22;21.57;;;10.50;;
3597;SDS011;1813;52.016;8.714;2024-02-21T08:03:58;22.43;;;10.80;;
3597;SDS011;1813;52.016;8.714;2024-02-21T08:06:34;21.17;;;10.40;;
3597;SDS011;1813;52.016;8.714;2024-02-21T08:09:07;18.90;;;10.53;;
3597;SDS011;1813;52.016;8.714;2024-02-21T08:11:40;21.33;;;10.53;;
3597;SDS011;1813;52.016;8.714;2024-02-21T08:14:13;21.60;;;10.70;;
3597;SDS011;1813;52.016;8.714;2024-02-21T08:16:48;18.80;;;10.00;;
3597;SDS011;1813;52.016;8.714;2024-02-21T08:19:24;18.10;;;9.93;;
3597;SDS011;1813;52.016;8.714;2024-02-21T08:21:57;19.77;;;10.27;;
3597;SDS011;1813;52.016;8.714;2024-02-21T08:24:30;18.97;;;9.43;;
3597;SDS011;1813;52.016;8.714;2024-02-21T08:27:04;25.00;;;10.07;;
3597;SDS011;1813;52.016;8.714;2024-02-21T08:29:37;18.33;;;9.30;;
3597;SDS011;1813;52.016;8.714;2024-02-21T08:32:10;16.37;;;9.33;;
3597;SDS011;1813;52.016;8.714;2024-02-21T08:34:46;17.80;;;8.60;;
3597;SDS011;1813;52.016;8.714;2024-02-21T08:37:20;18.70;;;9.50;;
3597;SDS011;1813;52.016;8.714;2024-02-21T08:39:53;19.70;;;9.20;;
3597;SDS011;1813;52.016;8.714;2024-02-21T08:42:27;19.43;;;9.60;;
3597;SDS011;1813;52.016;8.714;2024-02-21T08:45:00;17.90;;;8.97;;
3597;SDS011;1813;52.016;8.714;2024-02-21T08:47:33;20.50;;;9.10;;
3597;SDS011;1813;52.016;8.714;2024-02-21T08:50:10;26.57;;;9.63;;
3597;SDS011;1813;52.016;8.714;2024-02-21T08:52:44;12.67;;;8.50;;
3597;SDS011;1813;52.016;8.714;2024-02-21T08:55:17;16.53;;;8.70;;
3597;SDS011;1813;52.016;8.714;2024-02-21T08:57:50;15.87;;;8.37;;
3597;SDS011;1813;52.016;8.714;2024-02-21T09:00:23;21.47;;;8.93;;
3597;SDS011;1813;52.016;8.714;2024-02-21T09:02:57;15.13;;;8.00;;
3597;SDS011;1813;52.016;8.714;2024-02-21T09:05:33;15.87;;;7.77;;
3597;SDS011;1813;52.016;8.714;2024-02-21T09:08:06;17.03;;;8.30;;
3597;SDS011;1813;52.016;8.714;2024-02-21T09:10:40;15.80;;;8.30;;
3597;SDS011;1813;52.016;8.714;2024-02-21T09:13:13;13.87;;;7.30;;
3597;SDS011;1813;52.016;8.714;2024-02-21T09:15:47;16.80;;;8.27;;
3597;SDS011;1813;52.016;8.714;2024-02-21T09:18:20;14.90;;;7.77;;
3597;SDS011;1813;52.016;8.714;2024-02-21T09:20:56;14.30;;;7.40;;
3597;SDS011;1813;52.016;8.714;2024-02-21T09:23:30;17.50;;;7.33;;
3597;SDS011;1813;52.016;8.714;2024-02-21T09:26:04;15.10;;;6.60;;
3597;SDS011;1813;52.016;8.714;2024-02-21T09:28:38;12.53;;;6.70;;
3597;SDS011;1813;52.016;8.714;2024-02-21T09:31:11;13.00;;;7.00;;
3597;SDS011;1813;52.016;8.714;2024-02-21T09:33:44;9.50;;;6.50;;
3597;SDS011;1813;52.016;8.714;2024-02-21T09:36:20;14.67;;;6.83;;
3597;SDS011;1813;52.016;8.714;2024-02-21T09:38:54;11.77;;;6.30;;
3597;SDS011;1813;52.016;8.714;2024-02-21T09:41:27;12.30;;;6.63;;
3597;SDS011;1813;52.016;8.714;2024-02-21T09:44:00;9.40;;;6.30;;
3597;SDS011;1813;52.016;8.714;2024-02-21T09:46:36;9.20;;;5.60;;
3597;SDS011;1813;52.016;8.714;2024-02-21T09:49:19;13.10;;;6.00;;
3597;SDS011;1813;52.016;8.714;2024-02-21T09:52:05;12.67;;;6.40;;
3597;SDS011;1813;52.016;8.714;2024-02-21T09:54:39;8.33;;;5.63;;
3597;SDS011;1813;52.016;8.714;2024-02-21T09:57:15;9.47;;;5.20;;
3597;SDS011;1813;52.016;8.714;2024-02-21T09:59:48;9.80;;;5.10;;
3597;SDS011;1813;52.016;8.714;2024-02-21T10:02:22;13.67;;;5.40;;
3597;SDS011;1813;52.016;8.714;2024-02-21T10:04:56;7.30;;;5.13;;
3597;SDS011;1813;52.016;8.714;2024-02-21T10:07:32;10.33;;;5.00;;
3597;SDS011;1813;52.016;8.714;2024-02-21T10:10:06;11.10;;;5.70;;
3597;SDS011;1813;52.016;8.714;2024-02-21T10:12:47;12.30;;;5.10;;
3597;SDS011;1813;52.016;8.714;2024-02-21T10:15:22;8.17;;;4.70;;
3597;SDS011;1813;52.016;8.714;2024-02-21T10:17:59;9.60;;;5.30;;
3597;SDS011;1813;52.016;8.714;2024-02-21T10:20:33;7.83;;;5.23;;
3597;SDS011;1813;52.016;8.714;2024-02-21T10:23:09;11.23;;;5.67;;
3597;SDS011;1813;52.016;8.714;2024-02-21T10:25:43;10.63;;;5.73;;
3597;SDS011;1813;52.016;8.714;2024-02-21T10:28:17;8.43;;;5.10;;
3597;SDS011;1813;52.016;8.714;2024-02-21T10:30:53;14.00;;;6.10;;
3597;SDS011;1813;52.016;8.714;2024-02-21T10:33:26;9.27;;;5.97;;
3597;SDS011;1813;52.016;8.714;2024-02-21T10:36:08;9.40;;;6.40;;
3597;SDS011;1813;52.016;8.714;2024-02-21T10:38:45;16.23;;;6.80;;
3597;SDS011;1813;52.016;8.714;2024-02-21T10:41:19;11.80;;;6.17;;
3597;SDS011;1813;52.016;8.714;2024-02-21T10:43:53;12.40;;;6.77;;
3597;SDS011;1813;52.016;8.714;2024-02-21T10:46:28;10.40;;;6.87;;
3597;SDS011;1813;52.016;8.714;2024-02-21T10:49:06;11.43;;;6.80;;
3597;SDS011;1813;52.016;8.714;2024-02-21T10:51:45;14.00;;;7.17;;
3597;SDS011;1813;52.016;8.714;2024-02-21T10:54:29;18.33;;;7.93;;
3597;SDS011;1813;52.016;8.714;2024-02-21T10:57:11;17.43;;;8.37;;
3597;SDS011;1813;52.016;8.714;2024-02-21T10:59:46;16.33;;;8.30;;
3597;SDS011;1813;52.016;8.714;2024-02-21T11:02:21;18.33;;;9.10;;
3597;SDS011;1813;52.016;8.714;2024-02-21T11:04:55;14.47;;;8.30;;
3597;SDS011;1813;52.016;8.714;2024-02-21T11:07:29;10.70;;;7.97;;
3597;SDS011;1813;52.016;8.714;2024-02-21T11:10:19;15.00;;;8.70;;
3597;SDS011;1813;52.016;8.714;2024-02-21T11:12:53;19.57;;;9.97;;
3597;SDS011;1813;52.016;8.714;2024-02-21T11:15:27;21.00;;;10.40;;
3597;SDS011;1813;52.016;8.714;2024-02-21T11:18:01;22.13;;;10.33;;
3597;SDS011;1813;52.016;8.714;2024-02-21T11:20:34;21.93;;;10.70;;
3597;SDS011;1813;52.016;8.714;2024-02-21T11:23:09;16.23;;;10.07;;
3597;SDS011;1813;52.016;8.714;2024-02-21T11:25:45;19.13;;;10.20;;
3597;SDS011;1813;52.016;8.714;2024-02-21T11:28:25;17.83;;;10.83;;
3597;SDS011;1813;52.016;8.714;2024-02-21T11:31:06;16.73;;;10.43;;
3597;SDS011;1813;52.016;8.714;2024-02-21T11:33:39;19.00;;;10.47;;
3597;SDS011;1813;52.016;8.714;2024-02-21T11:36:22;18.13;;;9.90;;
3597;SDS011;1813;52.016;8.714;2024-02-21T11:39:02;14.93;;;10.60;;
3597;SDS011;1813;52.016;8.714;2024-02-21T11:41:39;20.40;;;9.90;;
3597;SDS011;1813;52.016;8.714;2024-02-21T11:44:13;16.97;;;10.13;;
3597;SDS011;1813;52.016;8.714;2024-02-21T11:46:46;17.70;;;9.77;;
3597;SDS011;1813;52.016;8.714;2024-02-21T11:49:19;19.30;;;10.00;;
3597;SDS011;1813;52.016;8.714;2024-02-21T11:51:59;15.70;;;9.30;;
3597;SDS011;1813;52.016;8.714;2024-02-21T11:54:34;13.80;;;8.20;;
3597;SDS011;1813;52.016;8.714;2024-02-21T11:57:10;14.60;;;8.60;;
3597;SDS011;1813;52.016;8.714;2024-02-21T11:59:44;18.07;;;9.37;;
3597;SDS011;1813;52.016;8.714;2024-02-21T12:02:18;14.43;;;7.73;;
3597;SDS011;1813;52.016;8.714;2024-02-21T12:04:52;16.00;;;8.40;;
3597;SDS011;1813;52.016;8.714;2024-02-21T12:07:26;15.83;;;8.47;;
3597;SDS011;1813;52.016;8.714;2024-02-21T12:10:00;12.10;;;7.57;;
3597;SDS011;1813;52.016;8.714;2024-02-21T12:12:36;17.00;;;8.10;;
3597;SDS011;1813;52.016;8.714;2024-02-21T12:15:10;11.93;;;7.17;;
3597;SDS011;1813;52.016;8.714;2024-02-21T12:17:43;11.00;;;6.23;;
3597;SDS011;1813;52.016;8.714;2024-02-21T12:20:17;9.77;;;5.90;;
3597;SDS011;1813;52.016;8.714;2024-02-21T12:22:50;9.60;;;5.17;;
3597;SDS011;1813;52.016;8.714;2024-02-21T12:25:25;10.93;;;5.00;;
3597;SDS011;1813;52.016;8.714;2024-02-21T12:28:01;8.93;;;5.03;;
3597;SDS011;1813;52.016;8.714;2024-02-21T12:30:35;11.50;;;4.80;;
3597;SDS011;1813;52.016;8.714;2024-02-21T12:33:10;11.97;;;4.70;;
3597;SDS011;1813;52.016;8.714;2024-02-21T12:35:44;10.13;;;4.80;;
3597;SDS011;1813;52.016;8.714;2024-02-21T12:38:19;9.23;;;4.30;;
3597;SDS011;1813;52.016;8.714;2024-02-21T12:40:52;8.23;;;4.70;;
3597;SDS011;1813;52.016;8.714;2024-02-21T12:43:30;10.17;;;4.87;;
3597;SDS011;1813;52.016;8.714;2024-02-21T12:46:04;8.70;;;4.13;;
3597;SDS011;1813;52.016;8.714;2024-02-21T12:48:37;9.73;;;4.30;;
3597;SDS011;1813;52.016;8.714;2024-02-21T12:51:11;10.27;;;4.47;;
3597;SDS011;1813;52.016;8.714;2024-02-21T12:53:45;9.37;;;4.47;;
3597;SDS011;1813;52.016;8.714;2024-02-21T12:56:19;8.70;;;4.23;;
3597;SDS011;1813;52.016;8.714;2024-02-21T12:58:55;7.83;;;4.30;;
3597;SDS011;1813;52.016;8.714;2024-02-21T13:01:29;8.50;;;4.60;;
3597;SDS011;1813;52.016;8.714;2024-02-21T13:04:02;11.57;;;5.53;;
3597;SDS011;1813;52.016;8.714;2024-02-21T13:06:35;11.40;;;5.13;;
3597;SDS011;1813;52.016;8.714;2024-02-21T13:09:09;15.17;;;5.40;;
3597;SDS011;1813;52.016;8.714;2024-02-21T13:11:43;10.10;;;5.07;;
3597;SDS011;1813;52.016;8.714;2024-02-21T13:14:19;10.43;;;5.43;;
3597;SDS011;1813;52.016;8.714;2024-02-21T13:16:53;10.80;;;5.23;;
3597;SDS011;1813;52.016;8.714;2024-02-21T13:19:26;6.90;;;5.20;;
3597;SDS011;1813;52.016;8.714;2024-02-21T13:21:59;11.57;;;5.60;;
3597;SDS011;1813;52.016;8.714;2024-02-21T13:24:33;9.33;;;4.53;;
3597;SDS011;1813;52.016;8.714;2024-02-21T13:27:06;10.00;;;5.67;;
3597;SDS011;1813;52.016;8.714;2024-02-21T13:29:42;10.53;;;5.57;;
3597;SDS011;1813;52.016;8.714;2024-02-21T13:32:15;10.47;;;5.20;;
3597;SDS011;1813;52.016;8.714;2024-02-21T13:34:49;10.10;;;5.57;;
3597;SDS011;1813;52.016;8.714;2024-02-21T13:37:22;10.37;;;5.93;;
3597;SDS011;1813;52.016;8.714;2024-02-21T13:39:55;9.63;;;5.63;;
3597;SDS011;1813;52.016;8.714;2024-02-21T13:42:29;10.73;;;5.73;;
3597;SDS011;1813;52.016;8.714;2024-02-21T13:45:05;11.37;;;6.23;;
3597;SDS011;1813;52.016;8.714;2024-02-21T13:47:40;10.73;;;6.47;;
3597;SDS011;1813;52.016;8.714;2024-02-21T13:50:13;14.70;;;6.00;;
3597;SDS011;1813;52.016;8.714;2024-02-21T13:52:47;9.33;;;5.63;;
3597;SDS011;1813;52.016;8.714;2024-02-21T13:55:20;11.83;;;5.47;;
3597;SDS011;1813;52.016;8.714;2024-02-21T13:57:56;11.10;;;5.33;;
3597;SDS011;1813;52.016;8.714;2024-02-21T14:00:32;11.70;;;5.30;;
3597;SDS011;1813;52.016;8.714;2024-02-21T14:03:06;9.23;;;5.03;;
3597;SDS011;1813;52.016;8.714;2024-02-21T14:05:59;11.27;;;4.63;;
3597;SDS011;1813;52.016;8.714;2024-02-21T14:08:34;12.23;;;5.70;;
3597;SDS011;1813;52.016;8.714;2024-02-21T14:11:09;7.30;;;4.30;;
3597;SDS011;1813;52.016;8.714;2024-02-21T14:13:44;11.60;;;5.00;;
3597;SDS011;1813;52.016;8.714;2024-02-21T14:16:20;11.40;;;4.10;;
3597;SDS011;1813;52.016;8.714;2024-02-21T14:18:53;8.60;;;4.10;;
3597;SDS011;1813;52.016;8.714;2024-02-21T14:21:27;10.23;;;4.43;;
3597;SDS011;1813;52.016;8.714;2024-02-21T14:24:01;7.60;;;4.10;;
3597;SDS011;1813;52.016;8.714;2024-02-21T14:26:34;11.83;;;3.90;;
3597;SDS011;1813;52.016;8.714;2024-02-21T14:29:09;6.07;;;3.53;;
3597;SDS011;1813;52.016;8.714;2024-02-21T14:31:45;5.87;;;3.63;;
3597;SDS011;1813;52.016;8.714;2024-02-21T14:34:19;10.30;;;3.87;;
3597;SDS011;1813;52.016;8.714;2024-02-21T14:36:52;8.83;;;3.80;;
3597;SDS011;1813;52.016;8.714;2024-02-21T14:39:25;8.30;;;3.83;;
3597;SDS011;1813;52.016;8.714;2024-02-21T14:41:58;10.50;;;4.27;;
3597;SDS011;1813;52.016;8.714;2024-02-21T14:44:33;5.50;;;3.87;;
3597;SDS011;1813;52.016;8.714;2024-02-21T14:47:09;10.70;;;3.30;;
3597;SDS011;1813;52.016;8.714;2024-02-21T14:49:42;10.90;;;4.20;;
3597;SDS011;1813;52.016;8.714;2024-02-21T14:52:16;7.30;;;3.47;;
3597;SDS011;1813;52.016;8.714;2024-02-21T14:54:51;7.03;;;3.57;;
3597;SDS011;1813;52.016;8.714;2024-02-21T14:57:24;9.20;;;4.40;;
3597;SDS011;1813;52.016;8.714;2024-02-21T14:59:58;8.43;;;4.23;;
3597;SDS011;1813;52.016;8.714;2024-02-21T15:02:35;15.97;;;4.57;;
3597;SDS011;1813;52.016;8.714;2024-02-21T15:05:08;8.70;;;4.13;;
3597;SDS011;1813;52.016;8.714;2024-02-21T15:07:42;7.57;;;4.13;;
3597;SDS011;1813;52.016;8.714;2024-02-21T15:10:15;10.50;;;4.73;;
3597;SDS011;1813;52.016;8.714;2024-02-21T15:12:50;12.43;;;4.10;;
3597;SDS011;1813;52.016;8.714;2024-02-21T15:15:23;7.80;;;4.50;;
3597;SDS011;1813;52.016;8.714;2024-02-21T15:17:59;9.07;;;5.43;;
3597;SDS011;1813;52.016;8.714;2024-02-21T15:20:33;17.20;;;5.57;;
3597;SDS011;1813;52.016;8.714;2024-02-21T15:23:07;10.70;;;4.87;;
3597;SDS011;1813;52.016;8.714;2024-02-21T15:25:40;11.20;;;4.90;;
3597;SDS011;1813;52.016;8.714;2024-02-21T15:28:14;8.40;;;4.50;;
3597;SDS011;1813;52.016;8.714;2024-02-21T15:30:47;7.93;;;4.60;;
3597;SDS011;1813;52.016;8.714;2024-02-21T15:33:23;10.40;;;4.57;;
3597;SDS011;1813;52.016;8.714;2024-02-21T15:35:57;8.27;;;3.80;;
3597;SDS011;1813;52.016;8.714;2024-02-21T15:38:32;7.87;;;3.90;;